createdAt,value
2023-04-26T00:01:12.053Z,101763.06
2023-04-26T00:03:41.063Z,101771.66
2023-04-26T00:06:16.929Z,101780.41
2023-04-26T00:08:50.432Z,101772.59
2023-04-26T00:11:23.920Z,101770.19
2023-04-26T00:13:50.659Z,101784.16
2023-04-26T00:16:25.006Z,101779.78
2023-04-26T00:18:52.154Z,101782.41
2023-04-26T00:21:25.870Z,101780.72
2023-04-26T00:23:52.794Z,101778.25
2023-04-26T00:26:25.936Z,101776.50
2023-04-26T00:28:53.098Z,101764.59
2023-04-26T00:31:26.923Z,101779.31
2023-04-26T00:33:53.977Z,101771.53
2023-04-26T00:36:27.914Z,101772.47
2023-04-26T00:38:55.105Z,101781.41
2023-04-26T00:41:28.898Z,101768.38
2023-04-26T00:44:03.020Z,101771.00
2023-04-26T00:46:31.310Z,101774.44
2023-04-26T00:49:04.912Z,101757.19
2023-04-26T00:51:32.067Z,101745.91
2023-04-26T00:54:05.987Z,101760.59
2023-04-26T00:56:33.714Z,101759.81
2023-04-26T00:59:07.967Z,101761.47
2023-04-26T01:01:35.884Z,101762.34
2023-04-26T01:04:10.054Z,101758.94
2023-04-26T01:06:38.729Z,101762.50
2023-04-26T01:09:21.939Z,101748.72
2023-04-26T01:11:58.341Z,101753.91
2023-04-26T01:14:31.896Z,101748.00
2023-04-26T01:16:58.783Z,101760.06
2023-04-26T01:19:32.971Z,101761.03
2023-04-26T01:22:05.954Z,101756.75
2023-04-26T01:24:35.795Z,101762.84
2023-04-26T01:27:10.899Z,101765.53
2023-04-26T01:29:37.729Z,101768.22
2023-04-26T01:32:14.631Z,101749.25
2023-04-26T01:34:43.994Z,101763.94
2023-04-26T01:37:17.947Z,101763.94
2023-04-26T01:39:44.866Z,101769.22
2023-04-26T01:42:20.952Z,101767.50
2023-04-26T01:44:47.812Z,101754.56
2023-04-26T01:47:20.985Z,101764.22
2023-04-26T01:49:54.008Z,101762.53
2023-04-26T01:52:27.892Z,101771.28
2023-04-26T01:54:54.680Z,101766.97
2023-04-26T01:57:28.054Z,101780.16
2023-04-26T01:59:56.279Z,101755.16
2023-04-26T02:02:30.037Z,101766.22
2023-04-26T02:05:04.055Z,101773.34
2023-04-26T02:07:37.075Z,101757.75
2023-04-26T02:10:17.013Z,101765.72
2023-04-26T02:12:50.075Z,101762.47
2023-04-26T02:15:23.948Z,101767.63
2023-04-26T02:17:50.955Z,101774.59
2023-04-26T02:20:24.737Z,101775.47
2023-04-26T02:22:51.685Z,101778.97
2023-04-26T02:25:24.951Z,101775.38
2023-04-26T02:27:51.948Z,101771.03
2023-04-26T02:30:24.992Z,101769.34
2023-04-26T02:32:56.816Z,101746.09
2023-04-26T02:35:30.967Z,101758.31
2023-04-26T02:38:04.001Z,101760.13
2023-04-26T02:40:31.154Z,101771.47
2023-04-26T02:43:04.033Z,101757.66
2023-04-26T02:45:31.055Z,101758.38
2023-04-26T02:48:04.021Z,101757.38
2023-04-26T02:50:37.062Z,101763.31
2023-04-26T02:53:11.052Z,101771.97
2023-04-26T02:55:39.388Z,101752.03
2023-04-26T02:58:13.000Z,101751.25
2023-04-26T03:00:40.033Z,101768.50
2023-04-26T03:03:13.193Z,101775.41
2023-04-26T03:05:42.592Z,101770.16
2023-04-26T03:08:23.041Z,101767.47
2023-04-26T03:10:55.935Z,101752.78
2023-04-26T03:13:25.717Z,101755.28
2023-04-26T03:15:59.935Z,101763.00
2023-04-26T03:18:26.661Z,101753.50
2023-04-26T03:20:59.986Z,101765.41
2023-04-26T03:23:32.955Z,101761.91
2023-04-26T03:26:05.950Z,101747.28
2023-04-26T03:28:32.913Z,101754.22
2023-04-26T03:31:05.985Z,101748.09
2023-04-26T03:33:32.794Z,101744.75
2023-04-26T03:36:05.936Z,101755.88
2023-04-26T03:38:45.980Z,101751.59
2023-04-26T03:41:20.018Z,101743.06
2023-04-26T03:43:47.157Z,101754.41
2023-04-26T03:46:21.376Z,101745.03
2023-04-26T03:48:48.798Z,101747.66
2023-04-26T03:51:22.058Z,101749.50
2023-04-26T03:53:56.026Z,101736.69
2023-04-26T03:56:23.028Z,101747.97
2023-04-26T03:58:56.015Z,101744.59
2023-04-26T04:01:23.051Z,101749.91
2023-04-26T04:03:56.222Z,101738.75
2023-04-26T04:06:23.236Z,101747.41
2023-04-26T04:09:02.980Z,101743.94
2023-04-26T04:11:36.001Z,101738.94
2023-04-26T04:14:03.347Z,101751.91
2023-04-26T04:16:36.964Z,101743.25
2023-04-26T04:19:04.216Z,101743.38
2023-04-26T04:21:39.032Z,101754.69
2023-04-26T04:24:13.118Z,101759.97
2023-04-26T04:26:39.994Z,101744.47
2023-04-26T04:29:16.015Z,101755.56
2023-04-26T04:31:49.090Z,101757.31
2023-04-26T04:34:24.081Z,101755.56
2023-04-26T04:36:57.970Z,101746.09
2023-04-26T04:39:24.826Z,101754.66
2023-04-26T04:41:58.023Z,101761.50
2023-04-26T04:44:34.187Z,101766.56
2023-04-26T04:47:08.143Z,101737.03
2023-04-26T04:49:35.125Z,101763.63
2023-04-26T04:52:08.024Z,101766.88
2023-04-26T04:54:34.952Z,101759.81
2023-04-26T04:57:09.024Z,101751.91
2023-04-26T04:59:35.805Z,101757.69
2023-04-26T05:02:09.037Z,101777.47
2023-04-26T05:04:35.897Z,101754.63
2023-04-26T05:07:09.007Z,101762.13
2023-04-26T05:09:45.935Z,101767.19
2023-04-26T05:12:19.082Z,101771.28
2023-04-26T05:14:51.966Z,101771.09
2023-04-26T05:17:18.838Z,101782.09
2023-04-26T05:19:53.034Z,101762.06
2023-04-26T05:22:21.455Z,101783.28
2023-04-26T05:24:56.055Z,101776.91
2023-04-26T05:27:22.941Z,101769.56
2023-04-26T05:29:56.025Z,101770.88
2023-04-26T05:32:22.853Z,101775.53
2023-04-26T05:34:56.040Z,101773.59
2023-04-26T05:37:22.926Z,101786.34
2023-04-26T05:39:56.010Z,101785.38
2023-04-26T05:42:22.951Z,101795.59
2023-04-26T05:44:56.113Z,101795.34
2023-04-26T05:47:29.059Z,101802.81
2023-04-26T05:49:55.873Z,101799.88
2023-04-26T05:52:29.017Z,101797.78
2023-04-26T05:54:55.780Z,101798.25
2023-04-26T05:57:29.090Z,101788.25
2023-04-26T05:59:55.979Z,101778.56
2023-04-26T06:02:29.197Z,101797.38
2023-04-26T06:04:57.534Z,101798.91
2023-04-26T06:07:31.100Z,101806.47
2023-04-26T06:10:04.097Z,101782.06
2023-04-26T06:12:38.045Z,101810.53
2023-04-26T06:15:05.691Z,101808.59
2023-04-26T06:17:39.126Z,101795.56
2023-04-26T06:20:06.845Z,101801.47
2023-04-26T06:22:41.192Z,101803.56
2023-04-26T06:25:15.043Z,101816.16
2023-04-26T06:27:42.323Z,101827.97
2023-04-26T06:30:16.126Z,101792.91
2023-04-26T06:32:43.164Z,101817.50
2023-04-26T06:35:17.077Z,101805.00
2023-04-26T06:37:43.776Z,101802.94
2023-04-26T06:40:18.052Z,101792.06
2023-04-26T06:42:44.850Z,101804.00
2023-04-26T06:45:19.150Z,101797.56
2023-04-26T06:47:46.209Z,101797.53
2023-04-26T06:50:20.359Z,101798.09
2023-04-26T06:52:47.199Z,101796.78
2023-04-26T06:55:21.151Z,101810.31
2023-04-26T06:57:48.039Z,101810.94
2023-04-26T07:00:15.222Z,101809.84
2023-04-26T07:02:49.250Z,101806.53
2023-04-26T07:05:16.756Z,101818.84
2023-04-26T07:07:50.297Z,101821.69
2023-04-26T07:10:23.601Z,101806.63
2023-04-26T07:12:57.068Z,101829.50
2023-04-26T07:15:24.138Z,101824.59
2023-04-26T07:17:57.119Z,101816.53
2023-04-26T07:20:24.490Z,101814.41
2023-04-26T07:22:58.148Z,101826.44
2023-04-26T07:25:31.085Z,101828.03
2023-04-26T07:27:57.962Z,101821.78
2023-04-26T07:30:32.165Z,101820.69
2023-04-26T07:32:59.050Z,101818.69
2023-04-26T07:35:32.179Z,101830.09
2023-04-26T07:37:58.902Z,101828.81
2023-04-26T07:40:33.325Z,101832.66
2023-04-26T07:43:03.255Z,101819.81
2023-04-26T07:45:37.204Z,101816.53
2023-04-26T07:48:04.456Z,101832.34
2023-04-26T07:50:38.104Z,101817.09
2023-04-26T07:53:04.955Z,101825.72
2023-04-26T07:55:38.089Z,101814.31
2023-04-26T07:58:04.921Z,101836.09
2023-04-26T08:00:38.122Z,101830.94
2023-04-26T08:03:12.198Z,101835.31
2023-04-26T08:05:39.526Z,101833.47
2023-04-26T08:08:13.048Z,101831.28
2023-04-26T08:10:49.351Z,101835.66
2023-04-26T08:13:23.144Z,101836.41
2023-04-26T08:15:50.408Z,101834.72
2023-04-26T08:18:24.095Z,101837.63
2023-04-26T08:20:51.072Z,101844.16
2023-04-26T08:23:26.153Z,101837.75
2023-04-26T08:25:53.348Z,101843.97
2023-04-26T08:28:20.562Z,101840.41
2023-04-26T08:30:54.688Z,101843.50
2023-04-26T08:33:28.085Z,101842.06
2023-04-26T08:36:02.107Z,101834.50
2023-04-26T08:38:29.892Z,101843.69
2023-04-26T08:41:06.187Z,101842.44
2023-04-26T08:43:36.070Z,101842.03
2023-04-26T08:46:13.215Z,101856.09
2023-04-26T08:48:40.992Z,101855.91
2023-04-26T08:51:17.110Z,101854.66
2023-04-26T08:53:44.293Z,101862.41
2023-04-26T08:56:21.021Z,101859.03
2023-04-26T08:58:47.754Z,101860.66
2023-04-26T09:01:23.408Z,101862.81
2023-04-26T09:03:57.569Z,101863.09
2023-04-26T09:06:32.216Z,101858.91
2023-04-26T09:09:22.191Z,101845.50
2023-04-26T09:12:01.173Z,101849.47
2023-04-26T09:14:28.265Z,101848.69
2023-04-26T09:16:55.726Z,101846.22
2023-04-26T09:19:47.068Z,101843.66
2023-04-26T09:22:13.784Z,101846.91
2023-04-26T09:24:59.373Z,101850.09
2023-04-26T09:27:37.191Z,101851.19
2023-04-26T09:30:16.110Z,101856.94
2023-04-26T09:32:56.781Z,101850.75
2023-04-26T09:35:35.117Z,101852.22
2023-04-26T09:38:12.821Z,101846.28
2023-04-26T09:40:56.118Z,101849.91
2023-04-26T09:43:23.280Z,101854.25
2023-04-26T09:45:59.361Z,101841.31
2023-04-26T09:48:41.181Z,101835.72
2023-04-26T09:51:14.134Z,101855.22
2023-04-26T09:53:56.651Z,101835.81
2023-04-26T09:56:30.161Z,101833.38
2023-04-26T09:59:05.148Z,101853.66
2023-04-26T10:01:40.143Z,101855.94
2023-04-26T10:04:14.171Z,101824.09
2023-04-26T10:06:47.345Z,101845.19
2023-04-26T10:09:21.123Z,101845.59
2023-04-26T10:12:03.140Z,101844.31
2023-04-26T10:14:37.137Z,101844.59
2023-04-26T10:17:12.192Z,101837.34
2023-04-26T10:19:42.008Z,101849.84
2023-04-26T10:22:21.179Z,101829.69
2023-04-26T10:24:49.357Z,101842.16
2023-04-26T10:27:23.196Z,101837.16
2023-04-26T10:29:56.722Z,101837.56
2023-04-26T10:32:31.210Z,101844.94
2023-04-26T10:35:21.219Z,101845.63
2023-04-26T10:38:07.213Z,101833.00
2023-04-26T10:40:47.239Z,101834.44
2023-04-26T10:43:21.152Z,101844.50
2023-04-26T10:45:49.209Z,101840.28
2023-04-26T10:48:29.196Z,101825.81
2023-04-26T10:51:05.751Z,101819.31
2023-04-26T10:53:59.221Z,101824.34
2023-04-26T10:56:32.215Z,101841.31
2023-04-26T11:02:07.274Z,101815.69
2023-04-26T11:04:53.764Z,101815.69
2023-04-26T11:07:45.182Z,101823.13
2023-04-26T11:10:36.729Z,101829.19
2023-04-26T11:13:04.378Z,101817.88
2023-04-26T11:15:38.260Z,101803.50
2023-04-26T11:18:06.255Z,101813.94
2023-04-26T11:20:40.145Z,101819.06
2023-04-26T11:23:08.980Z,101813.63
2023-04-26T11:25:46.266Z,101815.34
2023-04-26T11:28:13.253Z,101822.59
2023-04-26T11:30:47.476Z,101804.84
2023-04-26T11:33:26.216Z,101810.56
2023-04-26T11:35:54.557Z,101806.13
2023-04-26T11:38:33.179Z,101819.94
2023-04-26T11:41:08.280Z,101812.22
2023-04-26T11:43:37.154Z,101825.06
2023-04-26T11:46:15.182Z,101807.31
2023-04-26T11:48:42.477Z,101811.84
2023-04-26T11:51:17.281Z,101808.13
2023-04-26T11:53:44.776Z,101823.47
2023-04-26T11:56:25.176Z,101797.41
2023-04-26T11:58:53.288Z,101793.22
2023-04-26T12:01:35.240Z,101797.84
2023-04-26T12:04:02.358Z,101813.56
2023-04-26T12:06:50.310Z,101788.84
2023-04-26T12:09:45.254Z,101805.00
2023-04-26T12:12:19.272Z,101801.09
2023-04-26T12:14:47.857Z,101796.84
2023-04-26T12:17:22.230Z,101811.31
2023-04-26T12:19:50.157Z,101799.22
2023-04-26T12:22:28.227Z,101818.63
2023-04-26T12:25:12.312Z,101806.16
2023-04-26T12:27:39.941Z,101816.97
2023-04-26T12:30:14.237Z,101823.53
2023-04-26T12:32:42.108Z,101803.53
2023-04-26T12:35:16.214Z,101815.03
2023-04-26T12:37:42.982Z,101812.72
2023-04-26T12:40:17.257Z,101808.47
2023-04-26T12:42:44.060Z,101816.88
2023-04-26T12:45:18.235Z,101815.63
2023-04-26T12:47:46.834Z,101826.38
2023-04-26T12:50:25.280Z,101816.75
2023-04-26T12:52:52.158Z,101815.72
2023-04-26T12:55:33.051Z,101819.84
2023-04-26T12:58:06.184Z,101827.34
2023-04-26T13:00:39.276Z,101803.00
2023-04-26T13:03:12.350Z,101797.06
2023-04-26T13:05:46.284Z,101825.72
2023-04-26T13:08:20.233Z,101807.63
2023-04-26T13:10:53.573Z,101819.16
2023-04-26T13:13:39.955Z,101825.06
2023-04-26T13:16:10.636Z,101815.84
2023-04-26T13:18:44.220Z,101825.28
2023-04-26T13:21:11.111Z,101815.19
2023-04-26T13:23:44.267Z,101804.13
2023-04-26T13:26:11.076Z,101809.75
2023-04-26T13:28:44.285Z,101826.66
2023-04-26T13:31:12.086Z,101822.81
2023-04-26T13:33:45.271Z,101825.59
2023-04-26T13:36:12.245Z,101821.66
2023-04-26T13:38:45.282Z,101831.19
2023-04-26T13:41:21.173Z,101834.97
2023-04-26T13:43:48.020Z,101824.53
2023-04-26T13:46:21.246Z,101818.25
2023-04-26T13:48:48.486Z,101813.09
2023-04-26T13:51:22.364Z,101817.91
2023-04-26T13:53:49.181Z,101825.84
2023-04-26T13:56:23.538Z,101838.84
2023-04-26T13:58:56.642Z,101828.31
2023-04-26T14:01:30.334Z,101819.06
2023-04-26T14:03:57.517Z,101818.53
2023-04-26T14:06:31.306Z,101829.75
2023-04-26T14:09:07.404Z,101828.97
2023-04-26T14:11:51.439Z,101838.41
2023-04-26T14:14:21.071Z,101830.00
2023-04-26T14:16:54.263Z,101810.13
2023-04-26T14:19:27.302Z,101818.53
2023-04-26T14:21:54.056Z,101812.81
2023-04-26T14:24:27.350Z,101820.25
2023-04-26T14:27:01.868Z,101818.84
2023-04-26T14:29:35.258Z,101827.81
2023-04-26T14:32:02.394Z,101824.59
2023-04-26T14:34:35.242Z,101821.63
2023-04-26T14:37:04.273Z,101817.56
2023-04-26T14:39:38.258Z,101817.56
2023-04-26T14:42:05.333Z,101818.72
2023-04-26T14:44:39.324Z,101807.09
2023-04-26T14:47:06.473Z,101815.34
2023-04-26T14:49:33.383Z,101809.56
2023-04-26T14:52:06.302Z,101813.28
2023-04-26T14:54:47.271Z,101822.81
2023-04-26T14:57:20.297Z,101814.91
2023-04-26T14:59:47.417Z,101809.56
2023-04-26T15:02:21.412Z,101812.97
2023-04-26T15:04:48.524Z,101802.72
2023-04-26T15:07:31.208Z,101813.28
2023-04-26T15:10:06.769Z,101806.09
2023-04-26T15:12:40.356Z,101812.44
2023-04-26T15:15:07.879Z,101804.84
2023-04-26T15:17:41.281Z,101802.63
2023-04-26T15:20:09.601Z,101811.34
2023-04-26T15:22:43.307Z,101802.06
2023-04-26T15:25:11.927Z,101801.59
2023-04-26T15:27:45.310Z,101798.44
2023-04-26T15:30:19.440Z,101795.69
2023-04-26T15:32:50.512Z,101788.75
2023-04-26T15:35:26.108Z,101811.75
2023-04-26T15:38:02.235Z,101800.72
2023-04-26T15:40:29.191Z,101812.31
2023-04-26T15:43:02.361Z,101795.31
2023-04-26T15:45:35.367Z,101796.81
2023-04-26T15:48:02.187Z,101810.22
2023-04-26T15:50:35.316Z,101815.72
2023-04-26T15:53:02.265Z,101800.88
2023-04-26T15:55:35.301Z,101803.50
2023-04-26T15:58:02.132Z,101819.06
2023-04-26T16:00:35.304Z,101819.84
2023-04-26T16:03:02.451Z,101815.00
2023-04-26T16:05:36.337Z,101824.00
2023-04-26T16:08:10.362Z,101836.50
2023-04-26T16:10:50.336Z,101836.94
2023-04-26T16:13:24.334Z,101836.34
2023-04-26T16:15:51.303Z,101829.69
2023-04-26T16:18:24.258Z,101829.69
2023-04-26T16:20:58.373Z,101834.91
2023-04-26T16:23:31.260Z,101841.00
2023-04-26T16:25:58.187Z,101832.09
2023-04-26T16:28:31.279Z,101831.41
2023-04-26T16:31:04.436Z,101829.00
2023-04-26T16:33:38.380Z,101827.28
2023-04-26T16:36:05.771Z,101820.34
2023-04-26T16:38:39.348Z,101833.97
2023-04-26T16:41:06.387Z,101826.78
2023-04-26T16:43:33.229Z,101824.25
2023-04-26T16:46:07.358Z,101830.88
2023-04-26T16:48:43.404Z,101804.72
2023-04-26T16:51:13.090Z,101821.00
2023-04-26T16:53:46.385Z,101806.53
2023-04-26T16:56:20.319Z,101815.28
2023-04-26T16:58:53.371Z,101829.34
2023-04-26T17:01:21.190Z,101822.56
2023-04-26T17:03:48.867Z,101835.00
2023-04-26T17:06:23.336Z,101839.38
2023-04-26T17:08:56.331Z,101842.97
2023-04-26T17:11:29.766Z,101843.06
2023-04-26T17:14:03.329Z,101839.53
2023-04-26T17:16:36.513Z,101846.81
2023-04-26T17:19:04.490Z,101837.56
2023-04-26T17:21:38.406Z,101839.53
2023-04-26T17:24:05.830Z,101842.53
2023-04-26T17:26:39.392Z,101827.41
2023-04-26T17:29:06.232Z,101813.03
2023-04-26T17:31:33.366Z,101825.09
2023-04-26T17:34:07.644Z,101830.84
2023-04-26T17:36:34.482Z,101835.09
2023-04-26T17:39:08.378Z,101837.75
2023-04-26T17:41:35.630Z,101819.16
2023-04-26T17:44:09.390Z,101827.03
2023-04-26T17:46:38.658Z,101834.13
2023-04-26T17:49:15.864Z,101841.25
2023-04-26T17:51:42.745Z,101850.16
2023-04-26T17:54:16.341Z,101838.22
2023-04-26T17:56:50.406Z,101851.69
2023-04-26T17:59:24.519Z,101829.53
2023-04-26T18:01:51.712Z,101835.75
2023-04-26T18:04:18.850Z,101835.16
2023-04-26T18:06:52.424Z,101824.31
2023-04-26T18:09:39.364Z,101853.72
2023-04-26T18:12:06.248Z,101853.97
2023-04-26T18:14:33.054Z,101850.94
2023-04-26T18:17:06.411Z,101845.88
2023-04-26T18:19:33.297Z,101853.59
2023-04-26T18:22:06.342Z,101838.38
2023-04-26T18:24:42.602Z,101844.69
2023-04-26T18:27:12.043Z,101862.09
2023-04-26T18:29:48.364Z,101861.31
2023-04-26T18:32:22.353Z,101857.97
2023-04-26T18:34:55.374Z,101835.88
2023-04-26T18:37:28.441Z,101861.03
2023-04-26T18:39:55.217Z,101863.72
2023-04-26T18:42:28.394Z,101869.88
2023-04-26T18:45:01.359Z,101867.63
2023-04-26T18:47:34.466Z,101867.63
2023-04-26T18:50:08.364Z,101856.63
2023-04-26T18:52:35.746Z,101873.09
2023-04-26T18:55:09.424Z,101863.81
2023-04-26T18:57:36.373Z,101868.16
2023-04-26T19:00:12.454Z,101861.34
2023-04-26T19:02:42.351Z,101863.25
2023-04-26T19:05:19.533Z,101842.72
2023-04-26T19:07:46.788Z,101876.56
2023-04-26T19:10:23.564Z,101864.78
2023-04-26T19:13:03.487Z,101886.53
2023-04-26T19:15:30.749Z,101875.59
2023-04-26T19:18:04.577Z,101859.66
2023-04-26T19:20:31.779Z,101863.88
2023-04-26T19:23:05.446Z,101870.03
2023-04-26T19:25:32.312Z,101891.97
2023-04-26T19:28:06.510Z,101894.00
2023-04-26T19:30:33.453Z,101895.16
2023-04-26T19:33:06.557Z,101868.97
2023-04-26T19:35:33.456Z,101870.00
2023-04-26T19:38:00.262Z,101877.22
2023-04-26T19:40:33.533Z,101870.75
2023-04-26T19:43:06.450Z,101891.78
2023-04-26T19:45:33.201Z,101883.47
2023-04-26T19:48:06.410Z,101871.97
2023-04-26T19:50:39.612Z,101892.91
2023-04-26T19:53:07.507Z,101886.28
2023-04-26T19:55:40.624Z,101899.28
2023-04-26T19:58:14.403Z,101902.09
2023-04-26T20:00:41.772Z,101899.78
2023-04-26T20:03:08.814Z,101908.97
2023-04-26T20:05:42.373Z,101915.16
2023-04-26T20:08:09.149Z,101918.94
2023-04-26T20:10:49.614Z,101906.25
2023-04-26T20:13:23.433Z,101922.19
2023-04-26T20:15:56.500Z,101914.56
2023-04-26T20:18:46.497Z,101900.16
2023-04-26T20:21:19.809Z,101920.22
2023-04-26T20:23:53.505Z,101923.22
2023-04-26T20:26:20.466Z,101923.59
2023-04-26T20:28:54.423Z,101926.41
2023-04-26T20:31:21.490Z,101934.59
2023-04-26T20:33:55.543Z,101931.38
2023-04-26T20:36:22.563Z,101931.75
2023-04-26T20:38:56.446Z,101892.25
2023-04-26T20:41:23.545Z,101919.53
2023-04-26T20:44:00.508Z,101922.31
2023-04-26T20:46:27.843Z,101924.47
2023-04-26T20:49:07.787Z,101905.72
2023-04-26T20:51:34.976Z,101911.22
2023-04-26T20:54:08.509Z,101949.44
2023-04-26T20:56:35.791Z,101950.53
2023-04-26T20:59:09.660Z,101944.59
2023-04-26T21:01:43.767Z,101941.47
2023-04-26T21:04:17.707Z,101938.22
2023-04-26T21:06:51.534Z,101945.44
2023-04-26T21:09:18.633Z,101949.16
2023-04-26T21:11:58.472Z,101947.66
2023-04-26T21:14:25.395Z,101947.84
2023-04-26T21:16:58.434Z,101945.41
2023-04-26T21:19:25.249Z,101948.31
2023-04-26T21:21:52.151Z,101952.69
2023-04-26T21:24:25.510Z,101934.75
2023-04-26T21:26:58.498Z,101952.81
2023-04-26T21:29:25.426Z,101945.97
2023-04-26T21:31:58.527Z,101943.41
2023-04-26T21:34:31.639Z,101936.53
2023-04-26T21:36:58.657Z,101931.53
2023-04-26T21:39:31.541Z,101945.47
2023-04-26T21:42:04.612Z,101949.84
2023-04-26T21:44:37.527Z,101951.75
2023-04-26T21:47:12.981Z,101940.69
2023-04-26T21:49:46.685Z,101938.47
2023-04-26T21:52:19.775Z,101959.41
2023-04-26T21:54:53.486Z,101948.47
2023-04-26T21:57:24.293Z,101950.22
2023-04-26T21:59:58.440Z,101956.44
2023-04-26T22:02:25.604Z,101955.69
2023-04-26T22:05:01.514Z,101952.25
2023-04-26T22:07:34.533Z,101949.94
2023-04-26T22:10:08.617Z,101955.22
2023-04-26T22:12:44.366Z,101942.44
2023-04-26T22:15:17.456Z,101921.81
2023-04-26T22:17:50.512Z,101941.78
2023-04-26T22:20:27.151Z,101962.50
2023-04-26T22:23:00.518Z,101947.88
2023-04-26T22:25:27.464Z,101960.81
2023-04-26T22:28:01.501Z,101953.25
2023-04-26T22:30:36.476Z,101934.44
2023-04-26T22:33:09.584Z,101965.72
2023-04-26T22:35:36.671Z,101964.16
2023-04-26T22:38:10.573Z,101945.31
2023-04-26T22:40:37.433Z,101970.47
2023-04-26T22:43:10.521Z,101961.25
2023-04-26T22:45:37.555Z,101957.19
2023-04-26T22:48:14.290Z,101961.72
2023-04-26T22:50:41.236Z,101974.00
2023-04-26T22:53:14.578Z,101956.09
2023-04-26T22:55:48.853Z,101974.22
2023-04-26T22:58:17.425Z,101973.44
2023-04-26T23:00:50.602Z,101960.59
2023-04-26T23:03:17.540Z,101965.75
2023-04-26T23:05:51.719Z,101982.34
2023-04-26T23:08:18.569Z,101983.34
2023-04-26T23:10:58.582Z,101980.94
2023-04-26T23:13:29.749Z,101980.22
2023-04-26T23:16:03.564Z,101986.31
2023-04-26T23:18:31.405Z,101955.97
2023-04-26T23:21:04.600Z,101985.53
2023-04-26T23:23:32.046Z,101947.47
2023-04-26T23:26:08.252Z,101982.13
2023-04-26T23:28:42.607Z,101958.94
2023-04-26T23:31:16.638Z,101956.50
2023-04-26T23:33:55.011Z,101992.97
2023-04-26T23:36:22.275Z,101982.00
2023-04-26T23:38:55.595Z,101994.25
2023-04-26T23:41:22.817Z,101994.31
2023-04-26T23:43:56.572Z,101996.22
2023-04-26T23:46:23.551Z,102000.72
2023-04-26T23:48:57.621Z,101992.97
2023-04-26T23:51:24.448Z,101967.19
2023-04-26T23:53:57.544Z,101997.66
2023-04-26T23:56:24.341Z,102002.13
2023-04-26T23:58:57.530Z,101999.59
